Swissvale, Colorado
Current Conditions -  °F | °C
As of 4:35 AM on Tuesday 21 Oct 2014 (Local Time) from KANK Reporting Station
Clear Clear  
Wind Chill: 40°   Ceiling: Unl
Heat Index: 43°   Visibility: 10mi
Dew Point: 34°   Wind: 5mph
Humidity: 70%   Direction: 320°NW
Pressure: 30.29"   Gusts: NA
Location:  38.5561°N, 106.066°W
Report Text: KANK 211035Z AUTO 32004KT 10SM CLR 06/01 A3029 RMK AO1 T00610010
Loading
Personal Weather Stations






























Interactive Weather Map
Tropical Storm Tracking
New forecast layout! Learn more

10-Day Weather Forecast

Advertisements
Track Severe Weather on mobile